createdAt,value
2023-03-03T00:02:26.180Z,104.47
2023-03-03T00:07:34.669Z,105.80
2023-03-03T00:12:51.177Z,168.30
2023-03-03T00:17:57.242Z,122.67
2023-03-03T00:23:19.753Z,234.80
2023-03-03T00:28:28.356Z,121.07
2023-03-03T00:33:40.113Z,177.17
2023-03-03T00:38:50.504Z,168.77
2023-03-03T00:43:58.349Z,129.83
2023-03-03T00:49:03.571Z,114.47
2023-03-03T00:54:11.778Z,143.10
2023-03-03T00:59:19.220Z,200.83
2023-03-03T01:04:24.796Z,204.67
2023-03-03T01:09:32.479Z,179.13
2023-03-03T01:14:38.609Z,120.43
2023-03-03T01:19:46.074Z,171.90
2023-03-03T01:24:55.043Z,111.47
2023-03-03T01:30:05.590Z,102.33
2023-03-03T01:35:12.863Z,176.97
2023-03-03T01:40:25.814Z,117.10
2023-03-03T01:45:32.671Z,167.33
2023-03-03T01:50:48.260Z,103.90
2023-03-03T01:55:56.636Z,126.70
2023-03-03T02:01:05.834Z,145.90
2023-03-03T02:06:14.975Z,86.83
2023-03-03T02:11:36.808Z,191.57
2023-03-03T02:16:42.670Z,269.87
2023-03-03T02:21:47.727Z,123.20
2023-03-03T02:26:55.588Z,96.70
2023-03-03T02:32:00.768Z,81.63
2023-03-03T02:37:07.389Z,86.40
2023-03-03T02:42:23.075Z,128.77
2023-03-03T02:47:32.433Z,100.17
2023-03-03T02:52:38.127Z,103.37
2023-03-03T02:57:47.843Z,118.77
2023-03-03T03:02:53.133Z,141.43
2023-03-03T03:07:58.180Z,83.67
2023-03-03T03:13:06.281Z,104.30
2023-03-03T03:18:11.691Z,118.13
2023-03-03T03:23:17.956Z,104.33
2023-03-03T03:28:25.711Z,93.47
2023-03-03T03:33:31.494Z,110.33
2023-03-03T03:38:39.159Z,73.93
2023-03-03T03:43:48.081Z,71.70
2023-03-03T03:48:55.316Z,59.40
2023-03-03T03:54:01.424Z,60.60
2023-03-03T03:59:13.446Z,84.93
2023-03-03T04:04:19.615Z,70.67
2023-03-03T04:09:24.897Z,117.77
2023-03-03T04:14:33.936Z,63.07
2023-03-03T04:19:39.453Z,62.17
2023-03-03T04:24:44.838Z,55.63
2023-03-03T04:29:53.196Z,90.70
2023-03-03T04:35:07.742Z,56.07
2023-03-03T04:40:16.550Z,55.53
2023-03-03T04:45:24.345Z,59.20
2023-03-03T04:50:29.685Z,42.67
2023-03-03T04:55:35.790Z,50.83
2023-03-03T05:00:43.464Z,55.97
2023-03-03T05:05:50.384Z,82.57
2023-03-03T05:10:56.546Z,52.63
2023-03-03T05:16:04.205Z,80.30
2023-03-03T05:21:09.349Z,53.30
2023-03-03T05:26:14.327Z,97.57
2023-03-03T05:31:21.986Z,60.90
2023-03-03T05:36:27.649Z,40.87
2023-03-03T05:41:33.019Z,55.50
2023-03-03T05:46:41.903Z,42.77
2023-03-03T05:51:47.002Z,33.50
2023-03-03T05:56:57.133Z,36.30
2023-03-03T06:02:08.494Z,33.33
2023-03-03T06:07:13.670Z,39.20
2023-03-03T06:12:18.654Z,41.57
2023-03-03T06:17:26.533Z,56.80
2023-03-03T06:22:31.669Z,45.67
2023-03-03T06:27:36.783Z,74.00
2023-03-03T06:32:45.254Z,63.90
2023-03-03T06:37:53.636Z,80.93
2023-03-03T06:42:58.683Z,72.00
2023-03-03T06:48:06.832Z,96.13
2023-03-03T06:53:16.412Z,83.03
2023-03-03T06:58:26.430Z,45.17
2023-03-03T07:03:40.429Z,52.50
2023-03-03T07:08:45.388Z,85.63
2023-03-03T07:13:52.706Z,84.43
2023-03-03T07:19:04.151Z,77.53
2023-03-03T07:24:22.878Z,79.13
2023-03-03T07:29:30.684Z,48.20
2023-03-03T07:34:43.357Z,38.40
2023-03-03T07:39:52.996Z,33.97
2023-03-03T07:45:01.420Z,34.93
2023-03-03T07:50:19.483Z,37.90
2023-03-03T07:55:33.073Z,27.33
2023-03-03T08:01:10.545Z,35.57
2023-03-03T08:06:45.999Z,26.07
2023-03-03T08:11:56.692Z,27.23
2023-03-03T08:17:05.472Z,25.97
2023-03-03T08:22:19.246Z,32.33
2023-03-03T08:27:26.839Z,27.73
2023-03-03T08:32:32.798Z,30.73
2023-03-03T08:37:40.456Z,28.30
2023-03-03T08:42:45.389Z,21.40
2023-03-03T08:47:50.358Z,17.67
2023-03-03T08:53:00.672Z,19.97
2023-03-03T08:58:06.745Z,17.17
2023-03-03T09:03:14.189Z,16.33
2023-03-03T09:08:22.104Z,18.30
2023-03-03T09:13:27.532Z,14.73
2023-03-03T09:18:38.783Z,12.77
2023-03-03T09:23:54.705Z,10.23
2023-03-03T09:29:11.693Z,12.63
2023-03-03T09:34:24.118Z,12.90
2023-03-03T09:39:34.246Z,10.13
2023-03-03T09:45:06.934Z,12.00
2023-03-03T09:50:26.627Z,11.13
2023-03-03T09:55:59.178Z,10.97
2023-03-03T10:01:18.994Z,13.83
2023-03-03T10:06:32.019Z,13.83
2023-03-03T10:11:53.343Z,10.63
2023-03-03T10:17:22.544Z,13.43
2023-03-03T10:22:36.837Z,13.87
2023-03-03T10:28:02.684Z,11.83
2023-03-03T10:33:15.851Z,11.03
2023-03-03T10:38:35.617Z,11.27
2023-03-03T10:44:07.308Z,12.87
2023-03-03T10:49:25.197Z,11.20
2023-03-03T10:54:47.796Z,9.97
2023-03-03T11:00:08.731Z,18.27
2023-03-03T11:05:24.298Z,13.73
2023-03-03T11:10:55.972Z,11.87
2023-03-03T11:16:19.294Z,15.97
2023-03-03T11:21:29.522Z,11.30
2023-03-03T11:27:07.663Z,11.53
2023-03-03T11:32:26.291Z,13.13
2023-03-03T11:37:42.831Z,14.03
2023-03-03T11:43:01.523Z,10.50
2023-03-03T11:48:17.770Z,11.53
2023-03-03T11:53:35.134Z,8.83
2023-03-03T11:58:49.268Z,9.13
2023-03-03T12:04:06.215Z,11.17
2023-03-03T12:09:23.770Z,7.87
2023-03-03T12:14:49.387Z,9.13
2023-03-03T12:20:06.662Z,12.73
2023-03-03T12:25:26.229Z,9.03
2023-03-03T12:31:03.700Z,9.13
2023-03-03T12:36:24.402Z,7.30
2023-03-03T12:41:36.052Z,8.33
2023-03-03T12:46:49.623Z,8.70
2023-03-03T12:52:11.793Z,9.47
2023-03-03T12:57:24.460Z,11.37
2023-03-03T13:02:47.015Z,11.43
2023-03-03T13:08:08.884Z,10.80
2023-03-03T13:13:20.159Z,10.43
2023-03-03T13:18:48.864Z,9.90
2023-03-03T13:24:05.026Z,12.10
2023-03-03T13:29:18.780Z,13.73
2023-03-03T13:34:34.001Z,12.43
2023-03-03T13:39:54.913Z,14.83
2023-03-03T13:45:02.491Z,12.10
2023-03-03T13:50:20.522Z,12.70
2023-03-03T13:55:35.516Z,10.43
2023-03-03T14:00:54.676Z,13.93
2023-03-03T14:06:05.312Z,12.17
2023-03-03T14:11:26.564Z,11.70
2023-03-03T14:16:50.647Z,13.63
2023-03-03T14:22:11.908Z,11.60
2023-03-03T14:27:29.150Z,10.90
2023-03-03T14:32:45.107Z,12.77
2023-03-03T14:37:53.627Z,41.30
2023-03-03T14:43:06.922Z,11.80
2023-03-03T14:48:19.274Z,12.67
2023-03-03T14:53:34.899Z,13.60
2023-03-03T14:58:44.976Z,15.80
2023-03-03T15:03:53.127Z,15.57
2023-03-03T15:08:59.690Z,14.33
2023-03-03T15:14:18.910Z,16.90
2023-03-03T15:19:47.859Z,15.30
2023-03-03T15:25:02.069Z,13.90
2023-03-03T15:30:18.033Z,14.30
2023-03-03T15:35:38.447Z,18.43
2023-03-03T15:40:49.346Z,17.87
2023-03-03T15:46:09.864Z,14.00
2023-03-03T15:51:26.783Z,14.43
2023-03-03T15:56:40.835Z,15.73
2023-03-03T16:01:57.462Z,14.97
2023-03-03T16:07:08.522Z,19.90
2023-03-03T16:12:22.659Z,17.23
2023-03-03T16:17:47.294Z,15.57
2023-03-03T16:23:19.353Z,18.30
2023-03-03T16:28:32.715Z,15.87
2023-03-03T16:33:49.405Z,19.47
2023-03-03T16:39:04.418Z,18.67
2023-03-03T16:44:37.358Z,16.77
2023-03-03T16:49:54.774Z,20.77
2023-03-03T16:55:03.072Z,19.83
2023-03-03T17:00:15.608Z,21.17
2023-03-03T17:05:33.836Z,18.87
2023-03-03T17:10:44.182Z,20.50
2023-03-03T17:16:00.888Z,24.20
2023-03-03T17:21:17.653Z,22.33
2023-03-03T17:26:40.776Z,21.10
2023-03-03T17:31:52.338Z,22.47
2023-03-03T17:37:12.856Z,23.50
2023-03-03T17:42:25.039Z,22.23
2023-03-03T17:47:44.127Z,25.27
2023-03-03T17:53:23.550Z,26.93
2023-03-03T17:58:46.274Z,24.90
2023-03-03T18:04:12.069Z,25.43
2023-03-03T18:09:51.910Z,28.13
2023-03-03T18:15:23.450Z,30.67
2023-03-03T18:20:47.415Z,31.50
2023-03-03T18:26:00.015Z,31.17
2023-03-03T18:31:06.791Z,31.03
2023-03-03T18:36:17.491Z,31.43
2023-03-03T18:41:30.179Z,38.47
2023-03-03T18:46:56.461Z,36.27
2023-03-03T18:52:20.724Z,39.03
2023-03-03T18:57:28.688Z,43.23
2023-03-03T19:02:43.337Z,37.50
2023-03-03T19:08:02.346Z,44.73
2023-03-03T19:13:32.329Z,39.13
2023-03-03T19:18:40.851Z,43.97
2023-03-03T19:24:02.132Z,46.07
2023-03-03T19:29:26.774Z,50.90
2023-03-03T19:34:42.293Z,45.97
2023-03-03T19:40:01.486Z,49.83
2023-03-03T19:45:26.775Z,53.63
2023-03-03T19:50:40.012Z,51.03
2023-03-03T19:56:00.738Z,55.43
2023-03-03T20:01:20.723Z,56.23
2023-03-03T20:06:40.538Z,49.70
2023-03-03T20:12:01.753Z,46.97
2023-03-03T20:17:29.337Z,51.57
2023-03-03T20:22:44.164Z,54.70
2023-03-03T20:27:58.030Z,54.17
2023-03-03T20:33:33.354Z,59.87
2023-03-03T20:38:49.252Z,50.77
2023-03-03T20:44:05.778Z,55.40
2023-03-03T20:49:29.997Z,48.87
2023-03-03T20:54:45.139Z,56.13
2023-03-03T21:00:00.286Z,49.73
2023-03-03T21:05:17.275Z,53.50
2023-03-03T21:10:25.515Z,53.47
2023-03-03T21:15:35.792Z,48.87
2023-03-03T21:20:43.450Z,52.27
2023-03-03T21:25:55.101Z,46.03
2023-03-03T21:31:18.805Z,51.97
2023-03-03T21:36:47.068Z,52.87
2023-03-03T21:41:56.800Z,46.73
2023-03-03T21:47:02.123Z,58.80
2023-03-03T21:52:10.311Z,57.03
2023-03-03T21:57:16.101Z,61.23
2023-03-03T22:02:21.173Z,67.03
2023-03-03T22:07:29.254Z,62.63
2023-03-03T22:12:34.152Z,69.30
2023-03-03T22:17:40.851Z,66.97
2023-03-03T22:22:48.482Z,66.40
2023-03-03T22:27:53.505Z,64.37
2023-03-03T22:32:59.025Z,74.17
2023-03-03T22:38:06.791Z,64.63
2023-03-03T22:43:14.689Z,66.43
2023-03-03T22:48:19.699Z,58.57
2023-03-03T22:53:28.201Z,55.63
2023-03-03T22:58:33.157Z,52.63
2023-03-03T23:03:38.159Z,62.43
2023-03-03T23:08:45.716Z,54.43
2023-03-03T23:13:50.634Z,53.13
2023-03-03T23:18:57.471Z,59.40
2023-03-03T23:24:07.055Z,53.93
2023-03-03T23:29:12.003Z,53.27
2023-03-03T23:34:16.907Z,57.37
2023-03-03T23:39:24.493Z,47.53
2023-03-03T23:44:29.426Z,45.03
2023-03-03T23:49:37.865Z,49.00
2023-03-03T23:54:45.478Z,49.63
2023-03-03T23:59:50.543Z,46.10
